Time;durP1;ratioP1;P1;durP2;ratioP2;P2;SDS_P1;SDS_P2;PMS_P1;PMS_P2;Temp;Humidity;BMP_temperature;BMP_pressure;BME280_temperature;BME280_humidity;BME280_pressure;Samples;Min_cycle;Max_cycle;Signal;HPM_P1;HPM_P2
2022/01/31 00:02:24;;;;;;;;;7.50;4.25;;;;;;;;5071749;27;45583;-60
2022/01/31 00:04:50;;;;;;;;;6.00;6.00;;;;;;;;5092912;27;46646;-60
2022/01/31 00:07:15;;;;;;;;;5.00;4.00;;;;;;;;5093280;27;45500;-59
2022/01/31 00:09:42;;;;;;;;;5.50;5.50;;;;;;;;5093525;27;45501;-59
2022/01/31 00:12:10;;;;;;;;;12.25;8.50;;;;;;;;5076996;27;45461;-60
2022/01/31 00:14:44;;;;;;;;;7.50;3.00;;;;;;;;5092398;27;46093;-61
2022/01/31 00:17:10;;;;;;;;;4.00;4.00;;;;;;;;5090111;27;45476;-61
2022/01/31 00:19:36;;;;;;;;;5.50;4.00;;;;;;;;5092768;27;45383;-61
2022/01/31 00:22:02;;;;;;;;;7.75;7.00;;;;;;;;5073381;27;45439;-61
2022/01/31 00:24:27;;;;;;;;;4.50;4.00;;;;;;;;5074023;27;47325;-59
2022/01/31 00:26:52;;;;;;;;;8.75;8.25;;;;;;;;5074100;27;45418;-61
2022/01/31 00:29:18;;;;;;;;;9.50;7.00;;;;;;;;5093015;27;45308;-59
2022/01/31 00:31:43;;;;;;;;;10.75;7.75;;;;;;;;5092689;27;46047;-61
2022/01/31 00:34:09;;;;;;;;;7.25;4.75;;;;;;;;5057879;27;47600;-61
2022/01/31 00:36:34;;;;;;;;;8.25;7.00;;;;;;;;5093084;27;45534;-61
2022/01/31 00:38:59;;;;;;;;;7.00;5.25;;;;;;;;5090429;27;45637;-60
2022/01/31 00:41:24;;;;;;;;;7.75;6.50;;;;;;;;5086712;27;46174;-60
2022/01/31 00:44:02;;;;;;;;;7.75;7.00;;;;;;;;5066166;27;46680;-59
2022/01/31 00:46:40;;;;;;;;;9.00;5.50;;;;;;;;5092265;27;45530;-61
2022/01/31 00:49:11;;;;;;;;;9.25;7.75;;;;;;;;5094458;27;45498;-61
2022/01/31 00:51:36;;;;;;;;;4.00;4.00;;;;;;;;5075252;27;45335;-60
2022/01/31 00:54:01;;;;;;;;;3.50;3.50;;;;;;;;5094144;27;45404;-61
2022/01/31 00:56:27;;;;;;;;;6.00;6.00;;;;;;;;5091996;27;45423;-62
2022/01/31 00:58:52;;;;;;;;;13.50;9.00;;;;;;;;5091336;27;45625;-61
2022/01/31 01:01:17;;;;;;;;;6.00;5.00;;;;;;;;5091768;27;45521;-61
2022/01/31 01:03:42;;;;;;;;;7.25;6.50;;;;;;;;5089975;27;46496;-61
2022/01/31 01:06:07;;;;;;;;;6.25;4.25;;;;;;;;5093094;27;45351;-61
2022/01/31 01:08:33;;;;;;;;;7.00;7.00;;;;;;;;5092372;27;45455;-61
2022/01/31 01:10:58;;;;;;;;;5.25;4.00;;;;;;;;5091950;27;45545;-60
2022/01/31 01:13:23;;;;;;;;;3.25;3.25;;;;;;;;5071493;27;47744;-61
2022/01/31 01:15:48;;;;;;;;;4.00;4.00;;;;;;;;5091247;27;45338;-60
2022/01/31 01:18:14;;;;;;;;;6.00;3.00;;;;;;;;5075875;27;45397;-60
2022/01/31 01:20:39;;;;;;;;;5.25;4.00;;;;;;;;5073487;27;45478;-61
2022/01/31 01:23:04;;;;;;;;;3.50;2.25;;;;;;;;5072993;27;46439;-61
2022/01/31 01:25:32;;;;;;;;;6.25;4.00;;;;;;;;5073233;27;45400;-61
2022/01/31 01:27:57;;;;;;;;;4.00;3.00;;;;;;;;5091715;27;45551;-61
2022/01/31 01:30:22;;;;;;;;;6.00;4.00;;;;;;;;5092334;27;45441;-61
2022/01/31 01:33:10;;;;;;;;;3.75;3.50;;;;;;;;5092303;27;46471;-61
2022/01/31 01:35:38;;;;;;;;;4.50;3.25;;;;;;;;5091190;27;45402;-61
2022/01/31 01:38:07;;;;;;;;;4.25;3.00;;;;;;;;5090447;27;45534;-62
2022/01/31 01:40:33;;;;;;;;;5.00;2.25;;;;;;;;5090540;27;45435;-61
2022/01/31 01:42:58;;;;;;;;;4.75;3.00;;;;;;;;5090189;27;46424;-61
2022/01/31 01:45:25;;;;;;;;;4.00;4.00;;;;;;;;5092703;27;45419;-62
2022/01/31 01:47:50;;;;;;;;;3.75;3.75;;;;;;;;5092409;27;45495;-59
2022/01/31 01:50:15;;;;;;;;;7.00;3.00;;;;;;;;5089783;27;45426;-61
2022/01/31 01:52:40;;;;;;;;;5.25;3.75;;;;;;;;5091602;27;46354;-60
2022/01/31 01:55:06;;;;;;;;;2.00;2.00;;;;;;;;5091510;27;45671;-61
2022/01/31 01:57:31;;;;;;;;;4.25;3.00;;;;;;;;5073747;27;45382;-60
2022/01/31 01:59:57;;;;;;;;;5.75;4.00;;;;;;;;5093090;27;45452;-60
2022/01/31 02:02:23;;;;;;;;;4.00;2.00;;;;;;;;5091152;27;45760;-60
2022/01/31 02:04:48;;;;;;;;;3.00;3.00;;;;;;;;5070659;27;45817;-60
2022/01/31 02:07:13;;;;;;;;;3.00;3.00;;;;;;;;5085134;27;45662;-61
2022/01/31 02:09:44;;;;;;;;;6.75;3.00;;;;;;;;5080271;27;45477;-60
2022/01/31 02:12:10;;;;;;;;;7.00;3.00;;;;;;;;5096017;27;47595;-59
2022/01/31 02:14:35;;;;;;;;;3.00;3.00;;;;;;;;5094562;27;45401;-60
2022/01/31 02:17:00;;;;;;;;;3.00;3.00;;;;;;;;5071834;27;45494;-59
2022/01/31 02:19:25;;;;;;;;;2.75;2.00;;;;;;;;5095020;27;45409;-61
2022/01/31 02:21:52;;;;;;;;;1.75;1.00;;;;;;;;5092038;27;46733;-62
2022/01/31 02:24:17;;;;;;;;;3.00;2.00;;;;;;;;5074261;27;45469;-62
2022/01/31 02:26:42;;;;;;;;;5.50;2.00;;;;;;;;5094671;27;45639;-60
2022/01/31 02:29:11;;;;;;;;;7.00;4.00;;;;;;;;5094739;27;45846;-61
2022/01/31 02:31:36;;;;;;;;;7.50;4.00;;;;;;;;5094451;27;46482;-62
2022/01/31 02:34:01;;;;;;;;;3.00;3.00;;;;;;;;5094586;27;45745;-61
2022/01/31 02:36:27;;;;;;;;;4.25;4.00;;;;;;;;5095997;27;45420;-60
2022/01/31 02:38:52;;;;;;;;;2.50;2.00;;;;;;;;5075089;27;45636;-61
2022/01/31 02:41:17;;;;;;;;;8.50;5.50;;;;;;;;5093114;27;46494;-61
2022/01/31 02:43:48;;;;;;;;;3.00;2.00;;;;;;;;5094947;27;45460;-60
2022/01/31 02:46:14;;;;;;;;;3.00;3.00;;;;;;;;5076869;27;45413;-61
2022/01/31 02:48:39;;;;;;;;;4.00;2.75;;;;;;;;5095476;27;45388;-61
2022/01/31 02:51:09;;;;;;;;;3.50;3.00;;;;;;;;5096528;27;45596;-61
2022/01/31 02:53:40;;;;;;;;;4.00;2.75;;;;;;;;5073566;27;45684;-61
2022/01/31 02:56:06;;;;;;;;;9.50;3.00;;;;;;;;5094222;27;45399;-62
2022/01/31 02:58:31;;;;;;;;;2.75;2.75;;;;;;;;5074837;27;45504;-61
2022/01/31 03:00:57;;;;;;;;;2.00;1.00;;;;;;;;5073598;27;45544;-62
2022/01/31 03:03:22;;;;;;;;;3.75;3.00;;;;;;;;5095973;27;45353;-62
2022/01/31 03:05:48;;;;;;;;;4.00;2.75;;;;;;;;5094759;27;45456;-60
2022/01/31 03:08:13;;;;;;;;;5.25;2.50;;;;;;;;5075201;27;45350;-60
2022/01/31 03:10:39;;;;;;;;;3.25;3.00;;;;;;;;5093376;27;45490;-60
2022/01/31 03:13:04;;;;;;;;;5.00;3.25;;;;;;;;5094047;27;45448;-61
2022/01/31 03:15:29;;;;;;;;;6.25;3.00;;;;;;;;5095200;27;45464;-60
2022/01/31 03:17:55;;;;;;;;;1.00;1.00;;;;;;;;5076335;27;45549;-61
2022/01/31 03:20:21;;;;;;;;;5.75;2.00;;;;;;;;5093143;27;46306;-61
2022/01/31 03:22:47;;;;;;;;;1.50;1.25;;;;;;;;5091689;27;45603;-61
2022/01/31 03:25:12;;;;;;;;;1.00;1.00;;;;;;;;5093225;27;45365;-63
2022/01/31 03:27:38;;;;;;;;;6.00;2.25;;;;;;;;5092840;27;45415;-62
2022/01/31 03:30:07;;;;;;;;;3.00;2.00;;;;;;;;5094523;27;45462;-60
2022/01/31 03:32:32;;;;;;;;;3.25;2.00;;;;;;;;5075147;27;46049;-60
2022/01/31 03:34:57;;;;;;;;;1.00;1.00;;;;;;;;5093545;27;45559;-60
2022/01/31 03:37:22;;;;;;;;;3.00;2.00;;;;;;;;5091949;27;45519;-61
2022/01/31 03:39:47;;;;;;;;;1.50;1.50;;;;;;;;5093379;27;46803;-61
2022/01/31 03:42:16;;;;;;;;;4.00;3.00;;;;;;;;5095362;27;45139;-61
2022/01/31 03:44:43;;;;;;;;;1.00;1.00;;;;;;;;5075881;27;45537;-61
2022/01/31 03:47:08;;;;;;;;;2.00;2.00;;;;;;;;5093241;27;45553;-61
2022/01/31 03:49:33;;;;;;;;;5.75;2.50;;;;;;;;5074561;27;46467;-61
2022/01/31 03:51:58;;;;;;;;;3.00;2.00;;;;;;;;5093099;27;45411;-62
2022/01/31 03:54:23;;;;;;;;;6.50;2.50;;;;;;;;5094724;27;45452;-62
2022/01/31 03:56:48;;;;;;;;;3.25;3.00;;;;;;;;5094047;27;45402;-62
2022/01/31 03:59:14;;;;;;;;;2.25;2.25;;;;;;;;5074458;27;47531;-62
2022/01/31 04:01:39;;;;;;;;;3.75;2.50;;;;;;;;5074884;27;45525;-61
2022/01/31 04:04:10;;;;;;;;;6.75;2.00;;;;;;;;5092507;27;45784;-60
2022/01/31 04:06:35;;;;;;;;;2.25;1.25;;;;;;;;5093542;27;45556;-61
2022/01/31 04:09:00;;;;;;;;;3.00;3.00;;;;;;;;5094527;27;45738;-61
2022/01/31 04:11:25;;;;;;;;;2.25;2.25;;;;;;;;5092368;27;46050;-61
2022/01/31 04:13:51;;;;;;;;;2.25;2.00;;;;;;;;5092569;27;45490;-62
2022/01/31 04:16:16;;;;;;;;;2.00;1.00;;;;;;;;5091613;27;47622;-61
2022/01/31 04:18:41;;;;;;;;;1.00;1.00;;;;;;;;5092415;27;45742;-61
2022/01/31 04:21:06;;;;;;;;;1.00;1.00;;;;;;;;5073895;27;46084;-59
2022/01/31 04:23:32;;;;;;;;;1.00;0.00;;;;;;;;5092698;27;45558;-60
2022/01/31 04:26:07;;;;;;;;;1.00;1.00;;;;;;;;5093030;27;45491;-62
2022/01/31 04:28:40;;;;;;;;;3.25;1.00;;;;;;;;5092347;27;45874;-60
2022/01/31 04:33:46;;;;;;;;;2.00;0.75;;;;;;;;5089969;27;45463;-60
2022/01/31 04:36:14;;;;;;;;;2.50;0.00;;;;;;;;5068051;28;45601;-60
2022/01/31 04:38:40;;;;;;;;;3.00;2.00;;;;;;;;5090451;27;45564;-61
2022/01/31 04:41:06;;;;;;;;;2.00;1.00;;;;;;;;5092128;27;45491;-60
2022/01/31 04:43:32;;;;;;;;;3.00;1.00;;;;;;;;5092634;27;45519;-60
2022/01/31 04:46:00;;;;;;;;;0.00;0.00;;;;;;;;5092565;27;45507;-60
2022/01/31 04:48:25;;;;;;;;;1.50;1.00;;;;;;;;5093729;27;46086;-61
2022/01/31 04:50:51;;;;;;;;;1.00;1.00;;;;;;;;5092852;27;45373;-61
2022/01/31 04:53:16;;;;;;;;;2.50;1.50;;;;;;;;5073546;27;45625;-61
2022/01/31 04:55:41;;;;;;;;;6.50;1.75;;;;;;;;5091527;27;45470;-61
2022/01/31 04:58:07;;;;;;;;;1.50;1.50;;;;;;;;5072390;27;48988;-61
2022/01/31 05:00:33;;;;;;;;;1.75;0.50;;;;;;;;5092833;27;45730;-60
2022/01/31 05:02:58;;;;;;;;;1.00;1.00;;;;;;;;5074854;27;45445;-61
2022/01/31 05:05:23;;;;;;;;;3.75;0.00;;;;;;;;5073744;27;45469;-61
2022/01/31 05:07:51;;;;;;;;;0.25;0.25;;;;;;;;5091906;27;46586;-61
2022/01/31 05:10:17;;;;;;;;;0.50;0.25;;;;;;;;5073713;27;45605;-59
2022/01/31 05:12:42;;;;;;;;;1.25;1.25;;;;;;;;5091604;27;45519;-60
2022/01/31 05:15:07;;;;;;;;;4.00;2.00;;;;;;;;5075731;27;45523;-61
2022/01/31 05:17:33;;;;;;;;;2.00;0.00;;;;;;;;5091933;27;46525;-60
2022/01/31 05:19:58;;;;;;;;;2.00;1.00;;;;;;;;5091386;27;45546;-61
2022/01/31 05:22:23;;;;;;;;;4.25;2.25;;;;;;;;5073437;27;45566;-62
2022/01/31 05:24:49;;;;;;;;;3.50;1.00;;;;;;;;5089851;27;45420;-61
2022/01/31 05:27:14;;;;;;;;;2.25;1.50;;;;;;;;5093848;27;46020;-61
2022/01/31 05:29:39;;;;;;;;;4.00;1.50;;;;;;;;5091739;27;45383;-61
2022/01/31 05:32:05;;;;;;;;;3.50;1.00;;;;;;;;5073422;27;45370;-61
2022/01/31 05:34:30;;;;;;;;;1.00;1.00;;;;;;;;5091638;27;45612;-61
2022/01/31 05:36:56;;;;;;;;;1.25;0.50;;;;;;;;5091487;27;45767;-61
2022/01/31 05:39:25;;;;;;;;;2.25;2.00;;;;;;;;5093030;27;45375;-61
2022/01/31 05:41:53;;;;;;;;;2.25;1.00;;;;;;;;5089387;27;45377;-62
2022/01/31 05:44:19;;;;;;;;;1.50;1.00;;;;;;;;5092537;27;45341;-61
2022/01/31 05:46:44;;;;;;;;;1.00;1.00;;;;;;;;5093602;27;45878;-61
2022/01/31 05:49:09;;;;;;;;;2.00;0.75;;;;;;;;5068871;28;45409;-59
2022/01/31 05:51:39;;;;;;;;;1.00;1.00;;;;;;;;5076539;28;45496;-60
2022/01/31 05:54:04;;;;;;;;;2.00;0.00;;;;;;;;5078636;27;45744;-60
2022/01/31 05:56:29;;;;;;;;;1.00;1.00;;;;;;;;5097624;27;46534;-59
2022/01/31 05:58:55;;;;;;;;;0.00;0.00;;;;;;;;5097618;27;45423;-60
2022/01/31 06:01:20;;;;;;;;;5.00;2.25;;;;;;;;5078293;27;45520;-61
2022/01/31 06:03:45;;;;;;;;;2.00;2.00;;;;;;;;5079242;27;45505;-60
2022/01/31 06:06:10;;;;;;;;;2.50;1.00;;;;;;;;5099770;27;45933;-61
2022/01/31 06:08:36;;;;;;;;;1.00;1.00;;;;;;;;5097638;27;45622;-60
2022/01/31 06:11:01;;;;;;;;;3.50;1.00;;;;;;;;5079186;27;45494;-60
2022/01/31 06:13:30;;;;;;;;;1.00;1.00;;;;;;;;5097613;27;45608;-60
2022/01/31 06:15:55;;;;;;;;;7.00;1.25;;;;;;;;5095678;27;46786;-60
2022/01/31 06:18:20;;;;;;;;;1.00;1.00;;;;;;;;5088436;27;45427;-61
2022/01/31 06:20:45;;;;;;;;;3.00;1.00;;;;;;;;5097989;27;45391;-59
2022/01/31 06:23:11;;;;;;;;;2.25;1.00;;;;;;;;5097921;27;45439;-60
2022/01/31 06:25:37;;;;;;;;;4.25;1.00;;;;;;;;5097639;27;45774;-61
2022/01/31 06:28:04;;;;;;;;;3.00;1.75;;;;;;;;5074552;28;45416;-61
2022/01/31 06:30:31;;;;;;;;;0.00;0.00;;;;;;;;5094797;27;45430;-61
2022/01/31 06:32:56;;;;;;;;;1.75;1.00;;;;;;;;5090820;27;45451;-60
2022/01/31 06:35:22;;;;;;;;;1.00;1.00;;;;;;;;5095830;27;45510;-61
2022/01/31 06:37:47;;;;;;;;;1.00;1.00;;;;;;;;5085241;27;45626;-60
2022/01/31 06:40:12;;;;;;;;;1.25;1.25;;;;;;;;5068916;28;45443;-60
2022/01/31 06:42:38;;;;;;;;;3.00;0.00;;;;;;;;5078062;27;45473;-60
2022/01/31 06:45:04;;;;;;;;;2.00;1.00;;;;;;;;5090899;27;45445;-61
2022/01/31 06:47:29;;;;;;;;;1.75;0.75;;;;;;;;5091763;27;45467;-60
2022/01/31 06:49:54;;;;;;;;;0.50;0.00;;;;;;;;5092016;27;45363;-61
2022/01/31 06:52:20;;;;;;;;;2.25;1.50;;;;;;;;5091221;27;45462;-62
2022/01/31 06:54:49;;;;;;;;;2.00;2.00;;;;;;;;5090191;27;45895;-61
2022/01/31 06:57:15;;;;;;;;;3.00;0.00;;;;;;;;5092211;27;45517;-61
2022/01/31 06:59:40;;;;;;;;;0.50;0.50;;;;;;;;5093811;27;45827;-61
2022/01/31 07:02:05;;;;;;;;;0.00;0.00;;;;;;;;5074603;27;45513;-61
2022/01/31 07:04:31;;;;;;;;;0.75;0.00;;;;;;;;5070350;27;47123;-61
2022/01/31 07:06:56;;;;;;;;;1.00;0.00;;;;;;;;5091940;27;45921;-60
2022/01/31 07:09:22;;;;;;;;;2.00;0.50;;;;;;;;5096431;27;45403;-62
2022/01/31 07:11:50;;;;;;;;;1.00;1.00;;;;;;;;5092260;27;46096;-60
2022/01/31 07:14:31;;;;;;;;;1.75;0.75;;;;;;;;5082409;27;46474;-61
2022/01/31 07:16:56;;;;;;;;;2.00;1.00;;;;;;;;5059066;27;46501;-61
2022/01/31 07:19:25;;;;;;;;;2.75;1.50;;;;;;;;5091004;27;45984;-61
2022/01/31 07:21:51;;;;;;;;;0.50;0.50;;;;;;;;5057064;27;45359;-61
2022/01/31 07:24:21;;;;;;;;;0.00;0.00;;;;;;;;5076634;27;46840;-62
2022/01/31 07:26:47;;;;;;;;;0.75;0.25;;;;;;;;5093112;27;45405;-60
2022/01/31 07:29:12;;;;;;;;;0.00;0.00;;;;;;;;5093216;27;45503;-61
2022/01/31 07:31:39;;;;;;;;;1.00;0.00;;;;;;;;5092981;27;45485;-63
2022/01/31 07:34:04;;;;;;;;;1.00;1.00;;;;;;;;5091652;27;46495;-62
2022/01/31 07:36:30;;;;;;;;;1.25;1.25;;;;;;;;5094468;27;45656;-61
2022/01/31 07:38:55;;;;;;;;;2.50;1.75;;;;;;;;5094097;27;45459;-61
2022/01/31 07:41:20;;;;;;;;;0.00;0.00;;;;;;;;5092874;27;45586;-60
2022/01/31 07:43:46;;;;;;;;;1.00;1.00;;;;;;;;5074168;27;47490;-61
2022/01/31 07:46:14;;;;;;;;;0.50;0.50;;;;;;;;5093062;27;45451;-62
2022/01/31 07:48:39;;;;;;;;;1.00;1.00;;;;;;;;5093162;27;45996;-60
2022/01/31 07:51:05;;;;;;;;;1.00;1.00;;;;;;;;5076229;27;45437;-62
2022/01/31 07:53:30;;;;;;;;;0.00;0.00;;;;;;;;5092570;27;47817;-62
2022/01/31 07:55:56;;;;;;;;;3.00;1.00;;;;;;;;5092321;27;45851;-61
2022/01/31 07:58:21;;;;;;;;;1.00;1.00;;;;;;;;5093092;27;45534;-61
2022/01/31 08:00:46;;;;;;;;;1.00;0.75;;;;;;;;5092838;27;45446;-60
2022/01/31 08:03:12;;;;;;;;;3.00;2.00;;;;;;;;5076407;27;47811;-62
2022/01/31 08:05:37;;;;;;;;;3.25;1.50;;;;;;;;5092523;27;45900;-61
2022/01/31 08:08:03;;;;;;;;;1.00;1.00;;;;;;;;5073787;27;45549;-61
2022/01/31 08:10:28;;;;;;;;;2.00;1.00;;;;;;;;5092731;27;45452;-61
2022/01/31 08:12:55;;;;;;;;;3.00;1.25;;;;;;;;5094258;27;46377;-60
2022/01/31 08:15:25;;;;;;;;;2.25;1.25;;;;;;;;5090545;27;45524;-61
2022/01/31 08:17:50;;;;;;;;;1.00;1.00;;;;;;;;5092474;27;45561;-62
2022/01/31 08:20:16;;;;;;;;;1.00;1.00;;;;;;;;5092527;27;45371;-61
2022/01/31 08:22:41;;;;;;;;;4.00;2.75;;;;;;;;5092342;27;45493;-62
2022/01/31 08:25:13;;;;;;;;;1.00;1.00;;;;;;;;5092598;27;45452;-60
2022/01/31 08:27:40;;;;;;;;;3.25;1.25;;;;;;;;5092897;27;48037;-60
2022/01/31 08:30:10;;;;;;;;;3.00;1.00;;;;;;;;5094579;27;45396;-61
2022/01/31 08:32:44;;;;;;;;;2.50;1.50;;;;;;;;5074327;27;48433;-62
2022/01/31 08:37:53;;;;;;;;;1.00;0.75;;;;;;;;5092348;27;45506;-61
2022/01/31 08:40:18;;;;;;;;;2.00;1.00;;;;;;;;5073791;27;45481;-61
2022/01/31 08:42:43;;;;;;;;;4.00;2.00;;;;;;;;5092430;27;46708;-60
2022/01/31 08:45:09;;;;;;;;;2.00;2.00;;;;;;;;5094565;27;45405;-61
2022/01/31 08:47:34;;;;;;;;;2.00;1.00;;;;;;;;5092238;27;45475;-60
2022/01/31 08:49:59;;;;;;;;;2.25;1.50;;;;;;;;5073953;27;45607;-61
2022/01/31 08:52:24;;;;;;;;;1.00;1.00;;;;;;;;5090755;27;45867;-61
2022/01/31 08:54:50;;;;;;;;;3.50;3.50;;;;;;;;5091931;27;45423;-62
2022/01/31 08:57:15;;;;;;;;;2.00;2.00;;;;;;;;5076060;27;45456;-61
2022/01/31 08:59:44;;;;;;;;;1.00;1.00;;;;;;;;5092174;27;45424;-61
2022/01/31 09:02:14;;;;;;;;;1.75;1.75;;;;;;;;5091760;27;46875;-60
2022/01/31 09:04:48;;;;;;;;;2.50;1.00;;;;;;;;5091865;27;45415;-60
2022/01/31 09:07:20;;;;;;;;;2.75;2.00;;;;;;;;5073737;27;45527;-62
2022/01/31 09:09:52;;;;;;;;;1.00;1.00;;;;;;;;5073445;27;45614;-62
2022/01/31 09:12:18;;;;;;;;;6.25;4.00;;;;;;;;5075623;27;47446;-60
2022/01/31 09:14:44;;;;;;;;;1.00;1.00;;;;;;;;5091588;27;45986;-61
2022/01/31 09:17:09;;;;;;;;;1.25;1.25;;;;;;;;5091819;27;45379;-61
2022/01/31 09:19:35;;;;;;;;;1.75;1.75;;;;;;;;5090996;27;45827;-62
2022/01/31 09:22:01;;;;;;;;;2.00;1.00;;;;;;;;5091705;27;46308;-62
2022/01/31 09:24:27;;;;;;;;;2.00;2.00;;;;;;;;5074739;27;45498;-60
2022/01/31 09:26:52;;;;;;;;;1.25;1.00;;;;;;;;5074012;27;45545;-61
2022/01/31 09:29:18;;;;;;;;;4.50;1.75;;;;;;;;5091740;27;45415;-61
2022/01/31 09:31:43;;;;;;;;;2.00;1.00;;;;;;;;5073093;27;46454;-61
2022/01/31 09:34:08;;;;;;;;;4.00;1.00;;;;;;;;5091931;27;45555;-61
2022/01/31 09:36:34;;;;;;;;;0.00;0.00;;;;;;;;5092809;27;45778;-61
2022/01/31 09:38:59;;;;;;;;;2.00;0.25;;;;;;;;5074533;27;45526;-62
2022/01/31 09:41:27;;;;;;;;;3.00;1.25;;;;;;;;5072923;27;46238;-61
2022/01/31 09:44:06;;;;;;;;;1.00;1.00;;;;;;;;5073335;27;46145;-60
2022/01/31 09:48:57;;;;;;;;;2.00;1.00;;;;;;;;5091413;27;45499;-62
2022/01/31 09:51:23;;;;;;;;;2.00;1.00;;;;;;;;5075298;27;46400;-61
2022/01/31 09:53:49;;;;;;;;;3.00;1.00;;;;;;;;5090142;27;45564;-62
2022/01/31 09:56:21;;;;;;;;;3.50;1.00;;;;;;;;5091113;27;45445;-61
2022/01/31 09:58:47;;;;;;;;;2.25;1.25;;;;;;;;5073067;27;45441;-60
2022/01/31 10:01:14;;;;;;;;;1.50;1.25;;;;;;;;5069291;27;46537;-62
2022/01/31 10:03:59;;;;;;;;;2.75;2.00;;;;;;;;5054795;27;46232;-62
2022/01/31 10:06:25;;;;;;;;;2.00;1.00;;;;;;;;5070807;27;45416;-64
2022/01/31 10:09:06;;;;;;;;;2.25;2.00;;;;;;;;5090487;27;45339;-62
2022/01/31 10:11:40;;;;;;;;;1.25;0.00;;;;;;;;5089818;27;46478;-62
2022/01/31 10:17:05;;;;;;;;;4.75;2.75;;;;;;;;5091171;27;45569;-63
2022/01/31 10:19:36;;;;;;;;;1.00;1.00;;;;;;;;5091052;27;45408;-62
2022/01/31 10:22:03;;;;;;;;;1.33;1.00;;;;;;;;5072478;27;46693;-63
2022/01/31 10:24:30;;;;;;;;;2.00;2.00;;;;;;;;5092386;27;45401;-63
2022/01/31 10:26:56;;;;;;;;;1.00;1.00;;;;;;;;5091914;27;45475;-62
2022/01/31 10:29:22;;;;;;;;;2.00;2.00;;;;;;;;5091423;27;45814;-63
2022/01/31 10:32:07;;;;;;;;;0.00;0.00;;;;;;;;5094542;27;45577;-62
2022/01/31 10:34:34;;;;;;;;;2.75;1.00;;;;;;;;5094247;27;45477;-63
2022/01/31 10:37:04;;;;;;;;;1.50;0.00;;;;;;;;5094419;27;45675;-62
2022/01/31 10:46:33;;;;;;;;;3.00;1.00;;;;;;;;5094773;27;45524;-63
2022/01/31 10:53:53;;;;;;;;;0.00;0.00;;;;;;;;5093664;27;46325;-62
2022/01/31 10:56:18;;;;;;;;;3.00;2.00;;;;;;;;5093378;27;45520;-62
2022/01/31 10:58:53;;;;;;;;;1.00;1.00;;;;;;;;5093962;27;45559;-61
2022/01/31 11:01:19;;;;;;;;;2.50;1.00;;;;;;;;5075692;27;45508;-62
2022/01/31 11:03:45;;;;;;;;;2.00;1.00;;;;;;;;5093615;27;46680;-62
2022/01/31 11:06:11;;;;;;;;;0.50;0.00;;;;;;;;5095723;27;45399;-63
2022/01/31 11:08:37;;;;;;;;;2.25;1.00;;;;;;;;5075200;27;45580;-61
2022/01/31 11:11:02;;;;;;;;;3.00;1.00;;;;;;;;5075245;27;45573;-61
2022/01/31 11:13:31;;;;;;;;;1.00;0.00;;;;;;;;5093531;27;45721;-62
2022/01/31 11:15:56;;;;;;;;;3.75;2.00;;;;;;;;5075126;27;45641;-62
2022/01/31 11:18:22;;;;;;;;;2.00;0.00;;;;;;;;5095981;27;45461;-62
2022/01/31 11:20:49;;;;;;;;;0.50;0.25;;;;;;;;5093557;27;45848;-61
2022/01/31 11:23:16;;;;;;;;;1.00;1.00;;;;;;;;5074856;27;45987;-62
2022/01/31 11:25:43;;;;;;;;;3.00;2.00;;;;;;;;5093119;27;45507;-61
2022/01/31 11:28:10;;;;;;;;;2.00;1.00;;;;;;;;5093430;27;45519;-62
2022/01/31 11:30:35;;;;;;;;;1.00;1.00;;;;;;;;5094316;27;45365;-61
2022/01/31 11:33:02;;;;;;;;;1.00;1.00;;;;;;;;5094599;27;46051;-62
2022/01/31 11:35:27;;;;;;;;;1.00;1.00;;;;;;;;5093118;27;45511;-62
2022/01/31 11:37:53;;;;;;;;;2.00;1.00;;;;;;;;5074846;27;46114;-62
2022/01/31 11:40:18;;;;;;;;;1.25;1.00;;;;;;;;5087186;27;46413;-60
2022/01/31 11:42:46;;;;;;;;;3.00;1.00;;;;;;;;5068266;27;46509;-61
2022/01/31 11:45:13;;;;;;;;;1.50;1.50;;;;;;;;5096329;27;45494;-62
2022/01/31 11:47:39;;;;;;;;;1.00;1.00;;;;;;;;5092740;27;45891;-61
2022/01/31 11:50:09;;;;;;;;;1.50;1.00;;;;;;;;5093559;27;45434;-62
2022/01/31 11:52:44;;;;;;;;;1.00;1.00;;;;;;;;5091063;27;47570;-62
2022/01/31 11:55:12;;;;;;;;;0.25;0.25;;;;;;;;5060650;27;45659;-61
2022/01/31 11:57:38;;;;;;;;;1.75;1.00;;;;;;;;5086327;27;45553;-62
2022/01/31 12:00:08;;;;;;;;;1.00;0.00;;;;;;;;5085066;27;45370;-61
2022/01/31 12:02:40;;;;;;;;;0.25;0.25;;;;;;;;5073179;27;47453;-62
2022/01/31 12:05:11;;;;;;;;;1.25;0.75;;;;;;;;5084708;27;45599;-63
2022/01/31 12:07:46;;;;;;;;;5.00;2.75;;;;;;;;5072327;27;45509;-62
2022/01/31 12:10:20;;;;;;;;;5.75;3.00;;;;;;;;5089724;27;45448;-62
2022/01/31 12:12:59;;;;;;;;;1.00;1.00;;;;;;;;5093130;27;46389;-62
2022/01/31 12:15:52;;;;;;;;;1.00;0.00;;;;;;;;5071197;27;46502;-62
2022/01/31 12:18:31;;;;;;;;;1.00;1.00;;;;;;;;5092585;27;45401;-62
2022/01/31 12:23:50;;;;;;;;;2.00;1.00;;;;;;;;5088189;27;46010;-61
2022/01/31 12:26:28;;;;;;;;;1.00;1.00;;;;;;;;5089068;27;45416;-62
2022/01/31 12:28:58;;;;;;;;;2.50;1.25;;;;;;;;5089428;27;45345;-61
2022/01/31 12:31:23;;;;;;;;;0.50;0.50;;;;;;;;5092383;27;45403;-61
2022/01/31 12:33:49;;;;;;;;;0.00;0.00;;;;;;;;5091485;27;45722;-62
2022/01/31 12:36:25;;;;;;;;;1.00;1.00;;;;;;;;5093632;27;45448;-61
2022/01/31 12:38:50;;;;;;;;;0.00;0.00;;;;;;;;5093302;27;45475;-63
2022/01/31 12:41:35;;;;;;;;;4.00;0.00;;;;;;;;5090508;27;45498;-62
2022/01/31 12:44:19;;;;;;;;;2.75;2.25;;;;;;;;5091982;27;46600;-62
2022/01/31 12:46:49;;;;;;;;;2.75;1.00;;;;;;;;5089989;27;45648;-61
2022/01/31 12:49:14;;;;;;;;;2.00;2.00;;;;;;;;5086337;27;45656;-60
2022/01/31 12:51:56;;;;;;;;;0.25;0.25;;;;;;;;5073788;27;45406;-61
2022/01/31 12:54:21;;;;;;;;;0.00;0.00;;;;;;;;5088448;27;45758;-61
2022/01/31 12:56:47;;;;;;;;;0.00;0.00;;;;;;;;5089868;27;45493;-60
2022/01/31 12:59:14;;;;;;;;;0.00;0.00;;;;;;;;5074291;27;45466;-62
2022/01/31 13:01:43;;;;;;;;;0.00;0.00;;;;;;;;5072814;27;45566;-61
2022/01/31 13:04:08;;;;;;;;;1.00;1.00;;;;;;;;5089712;27;46413;-61
2022/01/31 13:06:38;;;;;;;;;0.00;0.00;;;;;;;;5090385;27;45914;-62
2022/01/31 13:09:08;;;;;;;;;0.00;0.00;;;;;;;;5075463;27;45583;-62
2022/01/31 13:11:34;;;;;;;;;3.50;2.50;;;;;;;;5073355;27;45448;-62
2022/01/31 13:14:03;;;;;;;;;0.00;0.00;;;;;;;;5091791;27;45350;-62
2022/01/31 13:16:36;;;;;;;;;1.25;1.00;;;;;;;;5086976;27;45626;-62
2022/01/31 13:19:09;;;;;;;;;2.50;0.00;;;;;;;;5091973;27;45760;-61
2022/01/31 13:21:35;;;;;;;;;0.00;0.00;;;;;;;;5082910;27;45456;-61
2022/01/31 13:24:01;;;;;;;;;0.00;0.00;;;;;;;;5072269;27;46625;-61
2022/01/31 13:26:26;;;;;;;;;0.00;0.00;;;;;;;;5052781;28;45408;-62
2022/01/31 13:28:51;;;;;;;;;2.00;0.00;;;;;;;;5069201;27;45452;-63
2022/01/31 13:31:17;;;;;;;;;0.00;0.00;;;;;;;;5071655;28;45828;-61
2022/01/31 13:33:47;;;;;;;;;0.50;0.00;;;;;;;;5071347;28;46365;-63
2022/01/31 13:36:13;;;;;;;;;0.25;0.25;;;;;;;;5073410;28;45427;-63
2022/01/31 13:38:38;;;;;;;;;0.00;0.00;;;;;;;;5071042;27;45317;-62
2022/01/31 13:41:04;;;;;;;;;1.75;1.00;;;;;;;;5052851;28;45461;-63
2022/01/31 13:43:36;;;;;;;;;0.25;0.00;;;;;;;;5071280;28;46334;-62
2022/01/31 13:46:23;;;;;;;;;2.00;1.00;;;;;;;;5071294;28;45467;-62
2022/01/31 13:51:32;;;;;;;;;1.00;1.00;;;;;;;;5073286;28;45899;-63
2022/01/31 13:54:05;;;;;;;;;0.25;0.00;;;;;;;;5054398;28;47131;-62
2022/01/31 13:56:30;;;;;;;;;3.00;0.50;;;;;;;;5060545;27;45397;-62
2022/01/31 13:58:57;;;;;;;;;1.00;1.00;;;;;;;;5063832;28;45556;-62
2022/01/31 14:01:22;;;;;;;;;3.50;1.00;;;;;;;;5059843;28;45535;-62
2022/01/31 14:03:48;;;;;;;;;1.00;0.00;;;;;;;;5052868;28;46775;-62
2022/01/31 14:06:14;;;;;;;;;1.50;0.75;;;;;;;;5064952;28;45560;-63
2022/01/31 14:08:40;;;;;;;;;2.00;1.00;;;;;;;;5053194;28;45951;-62
2022/01/31 14:11:11;;;;;;;;;0.50;0.50;;;;;;;;5067473;28;46170;-60
2022/01/31 14:13:37;;;;;;;;;1.00;1.00;;;;;;;;5069699;27;45596;-61
2022/01/31 14:16:03;;;;;;;;;0.00;0.00;;;;;;;;5051801;28;45527;-61
2022/01/31 14:18:30;;;;;;;;;1.00;0.00;;;;;;;;5064630;27;45857;-62
2022/01/31 14:20:55;;;;;;;;;2.75;1.50;;;;;;;;5069133;28;45556;-61
2022/01/31 14:23:20;;;;;;;;;1.00;0.25;;;;;;;;5086907;27;46046;-61
2022/01/31 14:25:47;;;;;;;;;0.00;0.00;;;;;;;;5068269;27;45629;-61
2022/01/31 14:28:13;;;;;;;;;0.25;0.25;;;;;;;;5094654;27;45382;-63
2022/01/31 14:30:49;;;;;;;;;0.00;0.00;;;;;;;;5090717;27;45501;-62
2022/01/31 14:33:17;;;;;;;;;1.00;1.00;;;;;;;;5089971;27;45700;-62
2022/01/31 14:35:42;;;;;;;;;0.75;0.00;;;;;;;;5087832;27;45719;-61
2022/01/31 14:38:16;;;;;;;;;1.00;1.00;;;;;;;;5066404;28;45610;-62
2022/01/31 14:47:17;;;;;;;;;0.00;0.00;;;;;;;;5087498;27;46616;-60
2022/01/31 14:48:56;;;;;;;;;0.75;0.75;;;;;;;;5080128;27;45570;-61
2022/01/31 14:51:25;;;;;;;;;0.00;0.00;;;;;;;;5086933;27;45530;-62
2022/01/31 14:53:54;;;;;;;;;0.00;0.00;;;;;;;;5093085;27;45818;-62
2022/01/31 14:56:19;;;;;;;;;0.75;0.00;;;;;;;;5074531;27;45550;-62
2022/01/31 14:58:44;;;;;;;;;0.25;0.25;;;;;;;;5093576;27;45415;-61
2022/01/31 15:01:09;;;;;;;;;1.00;0.75;;;;;;;;5093731;27;45502;-60
2022/01/31 15:03:35;;;;;;;;;0.25;0.00;;;;;;;;5075578;27;47488;-62
2022/01/31 15:06:00;;;;;;;;;1.00;0.00;;;;;;;;5093710;27;45404;-62
2022/01/31 15:08:25;;;;;;;;;1.50;1.00;;;;;;;;5093243;27;45791;-60
2022/01/31 15:10:53;;;;;;;;;1.50;0.00;;;;;;;;5072817;27;45432;-63
2022/01/31 15:13:18;;;;;;;;;1.25;0.00;;;;;;;;5066964;27;47669;-63
2022/01/31 15:15:43;;;;;;;;;1.00;0.00;;;;;;;;5082892;27;45563;-62
2022/01/31 15:18:09;;;;;;;;;0.50;0.50;;;;;;;;5074770;27;45334;-62